Time;durP1;ratioP1;P1;durP2;ratioP2;P2;SDS_P1;SDS_P2;PMS_P1;PMS_P2;Temp;Humidity;BMP_temperature;BMP_pressure;BME280_temperature;BME280_humidity;BME280_pressure;Samples;Min_cycle;Max_cycle;Signal;HPM_P1;HPM_P2
2023/08/02 00:00:21;;;;;;;4.88;4.38;;;;;;;21.20;51.98;94169.34;5076338;28;20054;-77
2023/08/02 00:02:46;;;;;;;6.80;4.53;;;;;;;21.06;51.59;94138.72;5076107;28;20086;-77
2023/08/02 00:05:11;;;;;;;5.40;4.25;;;;;;;21.26;51.79;94168.56;5093337;28;20076;-77
2023/08/02 00:07:37;;;;;;;4.85;4.15;;;;;;;21.17;52.00;94160.03;5092751;28;20028;-77
2023/08/02 00:10:03;;;;;;;5.05;4.18;;;;;;;21.13;52.15;94165.94;5076204;28;20506;-77
2023/08/02 00:12:29;;;;;;;4.80;4.25;;;;;;;21.30;51.81;94156.53;5093047;28;20044;-77
2023/08/02 00:14:54;;;;;;;4.90;4.28;;;;;;;21.34;52.16;94167.47;5093246;28;20079;-77
2023/08/02 00:17:19;;;;;;;4.60;4.10;;;;;;;21.22;51.57;94161.25;5092851;28;20040;-77
2023/08/02 00:19:45;;;;;;;5.15;4.22;;;;;;;21.22;51.99;94179.72;5094137;28;20020;-77
2023/08/02 00:22:10;;;;;;;4.90;4.40;;;;;;;21.34;51.63;94170.97;5094086;28;20028;-77
2023/08/02 00:24:36;;;;;;;5.80;4.80;;;;;;;21.25;51.64;94161.63;5075930;28;20031;-77
2023/08/02 00:27:01;;;;;;;4.75;4.25;;;;;;;21.26;51.42;94179.13;5059138;28;20157;-77
2023/08/02 00:29:26;;;;;;;4.47;4.00;;;;;;;21.25;51.38;94147.63;5093913;28;20019;-77
2023/08/02 00:31:52;;;;;;;4.88;4.38;;;;;;;21.19;51.47;94173.03;5075830;28;20024;-77
2023/08/02 00:34:17;;;;;;;4.90;4.40;;;;;;;21.14;51.44;94151.72;5058911;28;20037;-78
2023/08/02 00:36:43;;;;;;;5.22;4.72;;;;;;;21.16;51.34;94163.69;5092772;28;20405;-77
2023/08/02 00:39:08;;;;;;;5.53;4.60;;;;;;;21.16;51.47;94174.25;5094215;28;20035;-77
2023/08/02 00:41:33;;;;;;;5.45;4.50;;;;;;;21.16;51.60;94179.53;5092465;28;20386;-77
2023/08/02 00:43:59;;;;;;;6.82;4.82;;;;;;;21.08;51.96;94177.13;5092655;28;20085;-78
2023/08/02 00:46:24;;;;;;;5.55;4.63;;;;;;;21.12;51.89;94183.63;5091508;28;20394;-77
2023/08/02 00:48:50;;;;;;;5.43;4.57;;;;;;;21.19;51.74;94180.94;5075607;28;20043;-77
2023/08/02 00:51:15;;;;;;;5.60;4.57;;;;;;;21.09;51.87;94172.63;5075437;28;20035;-77
2023/08/02 00:53:44;;;;;;;5.40;4.85;;;;;;;21.02;51.69;94145.47;5069433;28;20521;-78
2023/08/02 00:56:10;;;;;;;5.53;4.15;;;;;;;21.15;51.74;94175.28;5072002;28;20066;-77
2023/08/02 00:58:35;;;;;;;5.30;4.80;;;;;;;21.10;52.07;94176.91;5072092;28;20033;-77
2023/08/02 01:01:07;;;;;;;5.45;4.95;;;;;;;21.07;52.07;94172.84;5071935;28;20029;-77
2023/08/02 01:03:44;;;;;;;4.93;4.43;;;;;;;21.12;51.98;94170.41;5056010;28;20119;-77
2023/08/02 01:06:42;;;;;;;6.93;4.75;;;;;;;21.07;52.16;94178.13;5055941;28;20517;-77
2023/08/02 01:09:11;;;;;;;4.90;4.40;;;;;;;21.05;52.29;94172.25;5037038;28;20130;-77
2023/08/02 01:11:42;;;;;;;6.47;4.93;;;;;;;21.01;52.34;94175.53;5055316;28;20025;-77
2023/08/02 01:14:08;;;;;;;7.28;5.30;;;;;;;20.90;52.56;94158.50;5038911;28;20040;-77
2023/08/02 01:16:33;;;;;;;4.90;4.40;;;;;;;20.97;52.88;94164.53;5054947;28;20025;-77
2023/08/02 01:19:00;;;;;;;6.22;4.70;;;;;;;21.03;52.67;94162.91;5055125;28;20471;-77
2023/08/02 01:21:26;;;;;;;6.30;5.13;;;;;;;20.77;52.96;94156.66;5071545;28;20086;-77
2023/08/02 01:23:51;;;;;;;5.80;5.10;;;;;;;20.75;53.04;94145.50;5071624;28;20033;-77
2023/08/02 01:26:16;;;;;;;5.82;4.70;;;;;;;20.83;52.94;94145.28;5071354;28;20028;-77
2023/08/02 01:28:43;;;;;;;6.85;4.90;;;;;;;20.85;53.02;94155.66;5054840;28;20032;-77
2023/08/02 01:31:09;;;;;;;6.40;5.70;;;;;;;20.78;53.22;94150.38;5054649;28;20028;-77
2023/08/02 01:33:37;;;;;;;5.82;5.20;;;;;;;20.67;53.47;94151.84;5037918;28;20094;-77
2023/08/02 01:36:03;;;;;;;5.60;5.10;;;;;;;20.69;53.54;94159.53;5054695;28;20032;-77
2023/08/02 01:38:28;;;;;;;6.70;5.22;;;;;;;20.74;53.53;94159.72;5054592;28;20410;-77
2023/08/02 01:40:54;;;;;;;6.00;5.40;;;;;;;20.74;53.52;94157.09;5071260;28;20659;-78
2023/08/02 01:43:19;;;;;;;6.07;5.47;;;;;;;20.73;53.42;94142.28;5070984;28;20021;-77
2023/08/02 01:45:44;;;;;;;6.00;5.40;;;;;;;20.81;53.08;94160.53;5054476;28;20095;-77
2023/08/02 01:48:10;;;;;;;6.53;5.80;;;;;;;20.80;53.48;94153.63;5071071;28;20036;-77
2023/08/02 01:50:35;;;;;;;5.95;5.35;;;;;;;20.75;53.51;94148.97;5072167;28;20040;-77
2023/08/02 01:53:00;;;;;;;6.00;5.35;;;;;;;20.79;53.50;94156.47;5054070;28;20410;-77
2023/08/02 01:55:26;;;;;;;6.13;5.53;;;;;;;20.72;53.77;94161.75;5092224;28;20032;-77
2023/08/02 01:57:51;;;;;;;5.82;5.22;;;;;;;20.65;54.07;94145.94;5091045;28;20410;-77
2023/08/02 02:00:17;;;;;;;6.10;5.50;;;;;;;20.60;54.08;94142.28;5092171;28;20032;-77
2023/08/02 02:02:42;;;;;;;6.90;5.70;;;;;;;20.55;54.44;94153.44;5092319;28;20024;-77
2023/08/02 02:05:08;;;;;;;7.07;6.38;;;;;;;20.39;54.56;94140.63;5073922;28;20032;-77
2023/08/02 02:07:33;;;;;;;6.68;6.03;;;;;;;20.49;54.77;94149.75;5090593;28;20118;-77
2023/08/02 02:09:58;;;;;;;7.07;5.70;;;;;;;20.45;55.16;94161.75;5097566;28;20076;-77
2023/08/02 02:12:24;;;;;;;6.50;5.80;;;;;;;20.50;55.01;94166.41;5109553;28;20486;-77
2023/08/02 02:14:49;;;;;;;6.60;6.00;;;;;;;20.42;55.20;94156.06;5110764;28;20027;-77
2023/08/02 02:17:15;;;;;;;6.53;5.93;;;;;;;20.36;55.49;94168.22;5093646;28;20039;-77
2023/08/02 02:19:40;;;;;;;7.30;6.45;;;;;;;20.30;55.96;94164.56;5093534;28;20170;-77
2023/08/02 02:22:06;;;;;;;9.02;6.38;;;;;;;20.32;55.95;94167.03;5111164;28;20031;-77
2023/08/02 02:24:31;;;;;;;6.25;5.65;;;;;;;20.42;55.75;94172.72;5110252;28;20038;-77
2023/08/02 02:26:56;;;;;;;6.07;5.47;;;;;;;20.31;55.84;94170.69;5110927;28;20015;-77
2023/08/02 02:29:22;;;;;;;6.53;5.93;;;;;;;20.04;56.38;94140.84;5111988;28;20374;-77
2023/08/02 02:31:48;;;;;;;7.50;6.65;;;;;;;20.22;56.24;94166.59;5093682;28;20126;-77
2023/08/02 02:34:13;;;;;;;7.97;6.68;;;;;;;20.20;56.63;94180.00;5110838;28;20249;-77
2023/08/02 02:36:38;;;;;;;7.60;6.60;;;;;;;20.15;56.48;94174.50;5076574;28;20421;-78
2023/08/02 02:39:05;;;;;;;7.50;6.80;;;;;;;20.24;56.69;94180.41;5110834;28;20042;-77
2023/08/02 02:41:30;;;;;;;8.30;7.10;;;;;;;20.25;56.48;94177.56;5110477;28;20062;-77
2023/08/02 02:43:56;;;;;;;7.40;6.70;;;;;;;20.23;56.35;94170.88;5093740;28;20067;-77
2023/08/02 02:46:21;;;;;;;6.78;6.18;;;;;;;20.11;57.15;94178.56;5093485;28;20035;-78
2023/08/02 02:48:46;;;;;;;7.20;6.50;;;;;;;20.36;56.27;94188.53;5110247;28;20036;-77
2023/08/02 02:51:12;;;;;;;6.88;6.20;;;;;;;20.07;57.18;94203.72;5110452;28;20023;-77
2023/08/02 02:53:37;;;;;;;7.22;6.35;;;;;;;20.12;57.04;94192.56;5104882;28;20024;-77
2023/08/02 02:56:03;;;;;;;7.15;6.45;;;;;;;20.15;56.75;94192.16;5090095;28;20020;-77
2023/08/02 02:58:28;;;;;;;7.03;6.32;;;;;;;20.25;56.51;94195.19;5090089;28;20489;-77
2023/08/02 03:00:56;;;;;;;6.85;6.22;;;;;;;20.28;56.62;94205.34;5090183;28;20486;-77
2023/08/02 03:03:21;;;;;;;6.80;5.90;;;;;;;20.34;56.61;94206.38;5091093;28;20036;-77
2023/08/02 03:05:47;;;;;;;7.63;6.28;;;;;;;20.33;56.46;94199.47;5089978;28;20081;-78
2023/08/02 03:08:12;;;;;;;6.70;6.10;;;;;;;20.32;56.14;94190.75;5072870;28;20060;-77
2023/08/02 03:10:38;;;;;;;6.47;5.88;;;;;;;20.33;56.34;94186.28;5089442;28;20077;-77
2023/08/02 03:13:03;;;;;;;7.72;6.20;;;;;;;20.51;56.20;94191.78;5089874;28;20406;-77
2023/08/02 03:15:28;;;;;;;7.93;6.43;;;;;;;20.60;56.10;94189.78;5072980;28;20032;-77
2023/08/02 03:17:54;;;;;;;7.68;6.88;;;;;;;20.46;56.74;94189.75;5089722;28;20498;-77
2023/08/02 03:20:19;;;;;;;6.90;6.20;;;;;;;20.36;56.45;94184.06;5089826;28;20036;-77
2023/08/02 03:22:45;;;;;;;8.45;6.70;;;;;;;20.43;56.44;94186.72;5089778;28;20039;-78
2023/08/02 03:25:10;;;;;;;6.70;6.10;;;;;;;20.53;56.70;94195.03;5072809;28;20032;-78
2023/08/02 03:27:36;;;;;;;6.88;6.18;;;;;;;20.67;56.43;94206.41;5072700;28;20036;-78
2023/08/02 03:30:01;;;;;;;6.03;5.43;;;;;;;20.56;56.52;94201.75;5089729;28;20320;-77
2023/08/02 03:32:26;;;;;;;6.70;6.10;;;;;;;20.41;56.48;94212.47;5089576;28;20032;-78
2023/08/02 03:34:52;;;;;;;6.88;6.22;;;;;;;20.15;56.98;94197.44;5089591;28;20024;-78
2023/08/02 03:37:17;;;;;;;6.35;5.75;;;;;;;20.11;57.48;94209.38;5091030;28;20028;-77
2023/08/02 03:39:43;;;;;;;8.35;6.40;;;;;;;19.94;58.27;94211.56;5090748;28;20406;-78
2023/08/02 03:42:08;;;;;;;7.43;6.72;;;;;;;20.06;57.90;94218.72;5089468;28;20028;-78
2023/08/02 03:44:33;;;;;;;7.18;6.47;;;;;;;20.20;58.02;94221.38;5089287;28;20191;-78
2023/08/02 03:46:59;;;;;;;6.55;5.95;;;;;;;20.07;57.55;94216.88;5089497;28;20024;-78
2023/08/02 03:49:24;;;;;;;6.93;6.25;;;;;;;19.93;57.82;94200.22;5072620;28;20410;-78
2023/08/02 03:51:49;;;;;;;7.07;6.38;;;;;;;20.06;57.66;94202.91;5089512;28;20024;-78
2023/08/02 03:54:15;;;;;;;7.28;6.57;;;;;;;19.97;57.76;94211.19;5078769;28;20040;-78
2023/08/02 03:56:40;;;;;;;7.18;6.47;;;;;;;20.09;57.42;94205.13;5070525;28;20024;-78
2023/08/02 03:59:06;;;;;;;6.70;6.10;;;;;;;20.16;57.32;94214.88;5069466;28;20036;-78
2023/08/02 04:01:31;;;;;;;6.22;5.63;;;;;;;19.93;57.15;94187.03;5069030;28;20482;-78
2023/08/02 04:03:56;;;;;;;6.72;6.13;;;;;;;20.09;57.35;94210.41;5069312;28;20071;-78
2023/08/02 04:06:22;;;;;;;6.80;6.10;;;;;;;20.15;57.08;94213.25;5069078;28;20391;-77
2023/08/02 04:08:47;;;;;;;6.88;6.18;;;;;;;20.08;57.57;94224.56;5070305;28;20491;-78
2023/08/02 04:11:13;;;;;;;8.43;6.20;;;;;;;20.09;57.25;94215.69;5070214;28;20021;-78
2023/08/02 04:13:38;;;;;;;6.85;5.82;;;;;;;20.12;57.02;94216.28;5070556;28;20041;-78
2023/08/02 04:16:03;;;;;;;6.80;6.10;;;;;;;20.11;57.06;94212.00;5070244;28;20024;-78
2023/08/02 04:18:29;;;;;;;7.72;6.32;;;;;;;20.17;56.90;94222.59;5052489;28;20459;-77
2023/08/02 04:20:54;;;;;;;6.60;5.90;;;;;;;20.26;56.69;94212.66;5069177;28;20040;-78
2023/08/02 04:23:20;;;;;;;7.43;5.80;;;;;;;20.21;56.93;94213.25;5072684;28;20033;-77
2023/08/02 04:25:45;;;;;;;6.78;6.07;;;;;;;20.19;57.11;94219.75;5072672;28;20078;-78
2023/08/02 04:28:10;;;;;;;6.88;6.13;;;;;;;20.26;56.61;94186.28;5056050;28;20032;-78
2023/08/02 04:30:36;;;;;;;6.50;5.80;;;;;;;20.23;56.66;94178.78;5073721;28;20098;-77
2023/08/02 04:33:01;;;;;;;7.28;6.28;;;;;;;20.24;56.88;94202.31;5039034;28;20498;-77
2023/08/02 04:35:28;;;;;;;6.65;6.05;;;;;;;20.60;56.08;94221.44;5039389;28;20039;-77
2023/08/02 04:37:54;;;;;;;6.93;6.22;;;;;;;20.52;56.33;94199.47;5055729;28;20028;-77
2023/08/02 04:40:19;;;;;;;6.53;5.90;;;;;;;20.71;55.98;94207.63;5072266;28;20506;-78
2023/08/02 04:42:47;;;;;;;6.97;6.30;;;;;;;21.25;54.52;94206.53;5073303;28;20066;-78
2023/08/02 04:45:12;;;;;;;6.28;5.68;;;;;;;21.23;54.34;94198.03;5072272;28;20028;-78
2023/08/02 04:47:38;;;;;;;6.47;5.88;;;;;;;21.23;53.93;94197.19;5073481;28;20043;-78
2023/08/02 04:50:03;;;;;;;7.05;5.80;;;;;;;21.08;54.88;94208.00;5072215;28;20506;-77
2023/08/02 04:52:29;;;;;;;6.68;5.85;;;;;;;21.12;54.67;94206.56;5073271;28;20052;-77
2023/08/02 04:54:54;;;;;;;7.88;6.00;;;;;;;20.98;54.93;94195.22;5071154;28;20032;-77
2023/08/02 04:57:19;;;;;;;6.57;5.97;;;;;;;21.02;54.93;94195.63;5092236;28;20036;-78
2023/08/02 04:59:45;;;;;;;6.57;5.97;;;;;;;21.21;54.77;94229.09;5093341;28;20017;-77
2023/08/02 05:02:10;;;;;;;12.85;6.53;;;;;;;21.22;55.78;94235.19;5092227;28;20117;-77
2023/08/02 05:04:36;;;;;;;9.85;7.07;;;;;;;21.00;56.77;94210.84;5091989;28;20028;-78
2023/08/02 05:07:01;;;;;;;14.48;7.50;;;;;;;20.69;57.90;94207.81;5091877;28;20020;-77
2023/08/02 05:09:26;;;;;;;15.85;8.82;;;;;;;20.80;58.05;94226.72;5092009;28;20434;-77
2023/08/02 05:11:52;;;;;;;12.13;8.20;;;;;;;20.82;58.89;94229.97;5093137;28;20024;-77
2023/08/02 05:14:18;;;;;;;10.73;8.48;;;;;;;20.77;58.98;94222.66;5091682;28;20027;-78
2023/08/02 05:16:43;;;;;;;13.23;8.32;;;;;;;20.80;59.22;94232.78;5075096;28;20024;-78
2023/08/02 05:19:09;;;;;;;11.88;8.48;;;;;;;20.78;59.31;94220.81;5075078;28;20038;-78
2023/08/02 05:21:34;;;;;;;10.45;8.13;;;;;;;21.04;58.69;94223.44;5090640;28;20028;-78
2023/08/02 05:24:00;;;;;;;11.55;8.30;;;;;;;21.06;58.53;94224.06;5082216;28;20047;-78
2023/08/02 05:26:25;;;;;;;17.55;8.73;;;;;;;20.91;58.81;94223.44;5088741;28;20024;-78
2023/08/02 05:28:51;;;;;;;12.80;9.38;;;;;;;20.98;58.89;94246.19;5092544;28;20036;-78
2023/08/02 05:31:16;;;;;;;15.38;8.70;;;;;;;20.97;58.34;94238.47;5087004;28;20036;-80
2023/08/02 05:33:41;;;;;;;11.32;8.52;;;;;;;21.17;58.51;94249.00;5073599;28;20101;-76
2023/08/02 05:36:07;;;;;;;13.48;8.68;;;;;;;21.07;58.07;94238.06;5069285;28;20028;-79
2023/08/02 05:38:35;;;;;;;11.02;8.20;;;;;;;21.12;57.77;94262.03;5070316;28;20044;-79
2023/08/02 05:41:04;;;;;;;11.82;8.65;;;;;;;21.17;57.81;94254.28;5088252;28;20023;-79
2023/08/02 05:43:29;;;;;;;10.43;7.63;;;;;;;21.47;56.67;94251.22;5071364;28;20424;-79
2023/08/02 05:45:55;;;;;;;13.68;8.38;;;;;;;21.39;57.14;94253.03;5074270;28;20031;-78
2023/08/02 05:48:21;;;;;;;10.93;7.82;;;;;;;21.60;56.23;94264.38;5091248;28;20036;-78
2023/08/02 05:50:46;;;;;;;12.00;7.97;;;;;;;21.45;57.28;94275.19;5074307;28;20028;-78
2023/08/02 05:53:11;;;;;;;10.65;8.05;;;;;;;21.48;57.28;94276.59;5090391;28;20089;-78
2023/08/02 05:55:37;;;;;;;17.58;8.68;;;;;;;21.36;56.88;94252.63;5074104;28;20027;-78
2023/08/02 05:58:03;;;;;;;14.82;8.80;;;;;;;21.58;56.76;94287.56;5074224;28;20081;-78
2023/08/02 06:00:29;;;;;;;10.45;8.25;;;;;;;21.83;56.38;94280.56;5087272;28;20077;-77
2023/08/02 06:02:54;;;;;;;11.23;8.13;;;;;;;22.07;56.02;94275.59;5090121;28;20128;-80
2023/08/02 06:05:20;;;;;;;13.38;8.23;;;;;;;22.05;56.07;94286.38;5091094;28;20501;-79
2023/08/02 06:07:45;;;;;;;14.00;8.75;;;;;;;22.19;54.32;94273.94;5065792;28;20461;-77
2023/08/02 06:10:10;;;;;;;11.35;7.53;;;;;;;22.42;53.12;94251.41;5070531;28;20486;-77
2023/08/02 06:12:36;;;;;;;10.82;7.93;;;;;;;22.51;52.85;94266.00;5070448;28;20082;-77
2023/08/02 06:15:01;;;;;;;8.70;7.22;;;;;;;22.47;52.14;94270.09;5069997;28;20029;-77
2023/08/02 06:17:27;;;;;;;8.60;7.18;;;;;;;22.79;51.94;94286.78;5069254;28;20039;-78
2023/08/02 06:19:52;;;;;;;8.55;7.40;;;;;;;22.97;51.82;94275.47;5070231;28;20029;-77
2023/08/02 06:22:18;;;;;;;9.85;7.55;;;;;;;22.79;51.92;94264.78;5051602;28;20392;-78
2023/08/02 06:24:43;;;;;;;10.35;7.18;;;;;;;22.98;52.23;94285.03;5052338;28;20410;-77
2023/08/02 06:27:09;;;;;;;8.00;6.95;;;;;;;23.07;52.21;94278.44;5053673;28;20025;-78
2023/08/02 06:29:35;;;;;;;11.90;7.40;;;;;;;23.27;51.56;94280.13;5070641;28;20483;-78
2023/08/02 06:32:00;;;;;;;13.82;7.25;;;;;;;23.54;50.85;94280.63;5070492;28;20453;-78
2023/08/02 06:34:26;;;;;;;11.10;7.13;;;;;;;24.06;49.50;94275.81;5053347;28;20531;-78
2023/08/02 06:36:51;;;;;;;7.63;6.82;;;;;;;24.30;48.91;94274.06;5070205;28;20043;-77
2023/08/02 06:39:17;;;;;;;12.43;7.10;;;;;;;24.69;47.96;94277.22;5070098;28;20505;-78
2023/08/02 06:41:42;;;;;;;10.27;6.50;;;;;;;25.07;46.91;94266.19;5070243;28;20021;-78
2023/08/02 06:44:07;;;;;;;8.35;6.93;;;;;;;25.32;45.59;94263.34;5069550;28;20040;-78
2023/08/02 06:46:33;;;;;;;7.80;7.00;;;;;;;25.05;46.11;94259.50;5037022;28;20029;-78
2023/08/02 06:48:59;;;;;;;8.80;7.15;;;;;;;25.20;46.32;94262.53;5070167;28;20532;-77
2023/08/02 06:51:24;;;;;;;11.23;7.05;;;;;;;25.47;45.97;94262.09;5070077;28;20040;-78
2023/08/02 06:53:51;;;;;;;15.15;7.60;;;;;;;26.01;44.18;94268.03;5053093;28;20047;-78
2023/08/02 06:56:16;;;;;;;9.98;6.72;;;;;;;25.95;44.47;94258.31;5070105;28;20494;-78
2023/08/02 06:58:42;;;;;;;8.60;6.85;;;;;;;26.16;43.83;94254.19;5053499;28;20113;-78
2023/08/02 07:01:12;;;;;;;9.63;7.25;;;;;;;25.96;44.43;94259.94;5036711;28;20032;-77
2023/08/02 07:03:38;;;;;;;10.38;7.32;;;;;;;26.16;43.62;94262.19;5053372;28;20048;-78
2023/08/02 07:06:19;;;;;;;10.90;6.93;;;;;;;26.38;43.07;94257.81;5070093;28;20039;-78
2023/08/02 07:08:45;;;;;;;8.50;7.07;;;;;;;26.77;41.81;94244.66;5053189;28;20060;-78
2023/08/02 07:11:11;;;;;;;9.82;7.50;;;;;;;27.08;41.91;94261.97;5069912;28;20051;-78
2023/08/02 07:13:36;;;;;;;9.85;7.60;;;;;;;27.02;41.57;94252.25;5069847;28;20109;-78
2023/08/02 07:16:03;;;;;;;9.93;7.00;;;;;;;26.60;43.16;94251.84;5036783;28;20032;-78
2023/08/02 07:18:28;;;;;;;9.15;7.55;;;;;;;26.46;43.77;94254.75;5053467;28;20040;-78
2023/08/02 07:20:53;;;;;;;11.82;7.50;;;;;;;26.42;43.68;94258.97;5069990;28;20440;-78
2023/08/02 07:23:19;;;;;;;8.95;8.05;;;;;;;26.61;42.27;94256.13;5071027;28;20403;-78
2023/08/02 07:25:45;;;;;;;11.60;7.38;;;;;;;26.95;42.00;94257.75;5053063;28;20041;-78
2023/08/02 07:28:10;;;;;;;8.98;7.13;;;;;;;27.07;42.42;94259.53;5053237;28;20139;-78
2023/08/02 07:30:35;;;;;;;12.43;8.48;;;;;;;27.16;41.88;94258.94;5071333;28;20475;-78
2023/08/02 07:33:01;;;;;;;10.50;7.80;;;;;;;27.28;41.35;94252.72;5069648;28;20032;-78
2023/08/02 07:35:26;;;;;;;9.55;7.60;;;;;;;27.31;41.99;94260.22;5069611;28;20078;-78
2023/08/02 07:37:51;;;;;;;7.88;7.13;;;;;;;27.54;40.06;94262.66;5071146;28;20483;-78
2023/08/02 07:40:17;;;;;;;7.82;7.13;;;;;;;27.90;38.85;94263.19;5036346;28;20020;-78
2023/08/02 07:42:42;;;;;;;8.18;7.38;;;;;;;27.99;40.24;94267.00;5070726;28;20036;-78
2023/08/02 07:45:09;;;;;;;8.77;7.70;;;;;;;27.39;40.49;94254.47;5053254;28;20024;-79
2023/08/02 07:47:35;;;;;;;9.25;7.75;;;;;;;27.37;40.67;94254.69;5036562;28;20556;-78
2023/08/02 07:50:00;;;;;;;8.35;7.55;;;;;;;27.57;39.84;94264.84;5053134;28;20060;-78
2023/08/02 07:52:26;;;;;;;9.23;7.07;;;;;;;28.11;39.01;94263.41;5036249;28;20028;-78
2023/08/02 07:54:53;;;;;;;7.70;6.90;;;;;;;28.39;38.73;94260.53;5069492;28;20032;-78
2023/08/02 07:57:22;;;;;;;8.82;7.63;;;;;;;28.16;38.93;94258.13;5057008;28;20032;-79
2023/08/02 07:59:47;;;;;;;7.63;6.93;;;;;;;28.17;38.83;94259.78;5057100;28;20127;-79
2023/08/02 08:02:13;;;;;;;9.25;7.63;;;;;;;28.34;38.52;94257.81;5056619;28;20037;-78
2023/08/02 08:04:38;;;;;;;10.85;8.35;;;;;;;28.37;38.28;94261.84;5056595;28;20417;-78
2023/08/02 08:07:04;;;;;;;8.73;7.55;;;;;;;28.31;38.74;94258.31;5040009;28;20416;-78
2023/08/02 08:09:30;;;;;;;9.13;7.60;;;;;;;28.74;37.65;94261.97;5056453;28;20049;-78
2023/08/02 08:11:55;;;;;;;10.82;8.07;;;;;;;28.83;37.85;94264.97;5073009;28;20028;-82
2023/08/02 08:14:20;;;;;;;10.40;8.27;;;;;;;28.60;38.46;94258.91;5056544;28;20024;-80
2023/08/02 08:16:46;;;;;;;9.30;8.35;;;;;;;28.56;38.84;94255.13;5056591;28;20028;-80
2023/08/02 08:19:11;;;;;;;9.98;8.10;;;;;;;28.57;38.37;94251.41;5072740;28;20032;-79
2023/08/02 08:21:37;;;;;;;9.95;7.80;;;;;;;28.78;37.15;94256.91;5072718;28;20024;-78
2023/08/02 08:24:02;;;;;;;8.13;7.03;;;;;;;28.84;37.28;94255.94;5039865;28;20029;-79
2023/08/02 08:26:27;;;;;;;8.55;7.50;;;;;;;28.89;37.47;94256.78;5073034;28;20039;-79
2023/08/02 08:28:53;;;;;;;10.10;8.13;;;;;;;28.78;38.05;94260.41;5056184;28;20036;-78
2023/08/02 08:31:18;;;;;;;8.23;7.43;;;;;;;29.10;37.58;94251.63;5072998;28;20074;-79
2023/08/02 08:33:44;;;;;;;10.65;7.43;;;;;;;29.01;37.39;94258.47;5072864;28;20483;-78
2023/08/02 08:36:13;;;;;;;7.70;6.90;;;;;;;28.98;36.94;94256.31;5056054;28;20036;-78
2023/08/02 08:38:39;;;;;;;11.43;7.32;;;;;;;28.76;36.58;94265.19;5056608;28;20406;-79
2023/08/02 08:41:04;;;;;;;8.35;6.97;;;;;;;28.89;37.16;94250.59;5039175;28;20048;-79
2023/08/02 08:43:32;;;;;;;7.75;6.88;;;;;;;28.56;37.13;94231.09;5056039;28;20032;-78
2023/08/02 08:45:57;;;;;;;12.63;7.28;;;;;;;28.57;37.09;94247.91;5072601;28;20029;-78
2023/08/02 08:48:23;;;;;;;8.65;6.82;;;;;;;28.55;37.16;94248.16;5055680;28;20040;-78
2023/08/02 08:50:49;;;;;;;8.27;6.60;;;;;;;28.89;37.45;94242.59;5072259;28;20029;-78
2023/08/02 08:53:18;;;;;;;10.95;7.10;;;;;;;29.04;36.77;94239.28;5055889;28;20041;-78
2023/08/02 08:55:45;;;;;;;7.73;6.27;;;;;;;29.07;36.31;94239.56;5072499;28;20048;-78
2023/08/02 08:58:10;;;;;;;8.20;5.80;;;;;;;28.48;35.67;94237.69;5055690;28;20041;-78
2023/08/02 09:00:36;;;;;;;7.25;6.00;;;;;;;28.95;35.56;94222.88;5038807;28;20036;-79
2023/08/02 09:03:01;;;;;;;7.93;5.70;;;;;;;29.15;36.90;94247.09;5072449;28;20028;-78
2023/08/02 09:05:30;;;;;;;7.57;5.45;;;;;;;29.56;34.17;94241.22;5072231;28;20404;-78
2023/08/02 09:07:58;;;;;;;6.50;5.88;;;;;;;29.77;34.93;94232.25;5054295;28;20044;-79
2023/08/02 09:10:25;;;;;;;6.40;5.78;;;;;;;29.81;33.22;94224.50;5071971;28;20021;-78
2023/08/02 09:12:51;;;;;;;8.80;5.90;;;;;;;30.07;33.96;94236.13;5039041;28;20041;-78
2023/08/02 09:15:16;;;;;;;7.55;5.72;;;;;;;30.27;33.41;94241.56;5073131;28;20442;-78
2023/08/02 09:17:52;;;;;;;8.23;5.38;;;;;;;30.47;33.21;94237.34;5072072;28;20024;-80
2023/08/02 09:20:20;;;;;;;8.52;5.72;;;;;;;30.23;33.76;94224.44;5038506;28;20098;-79
2023/08/02 09:22:46;;;;;;;9.05;6.22;;;;;;;29.93;33.96;94229.66;5038651;28;20482;-78
2023/08/02 09:25:25;;;;;;;8.95;5.88;;;;;;;30.25;34.05;94226.84;5038635;28;20021;-79
2023/08/02 09:27:51;;;;;;;6.13;5.45;;;;;;;30.53;34.21;94228.22;5038480;28;20052;-79
2023/08/02 09:30:23;;;;;;;7.13;6.15;;;;;;;30.84;33.37;94228.28;5038562;28;20123;-78
2023/08/02 09:33:06;;;;;;;8.20;6.15;;;;;;;30.65;33.98;94223.44;5055145;28;20486;-79
2023/08/02 09:35:51;;;;;;;7.20;6.35;;;;;;;30.53;33.70;94232.78;5054894;28;20069;-78
2023/08/02 09:38:16;;;;;;;7.45;6.47;;;;;;;30.61;32.85;94233.06;5055156;28;20037;-78
2023/08/02 09:40:42;;;;;;;7.38;5.80;;;;;;;30.57;32.58;94223.16;5054959;28;20079;-78
2023/08/02 09:43:12;;;;;;;6.72;5.95;;;;;;;30.48;33.23;94225.56;5054506;28;20032;-79
2023/08/02 09:45:37;;;;;;;8.63;6.00;;;;;;;30.80;32.26;94219.19;5071148;28;20035;-78
2023/08/02 09:48:02;;;;;;;6.70;6.00;;;;;;;30.70;32.54;94220.78;5054552;28;20029;-78
2023/08/02 09:50:28;;;;;;;5.95;5.35;;;;;;;30.72;33.13;94228.53;5038017;28;20033;-78
2023/08/02 09:52:54;;;;;;;6.22;5.55;;;;;;;30.89;32.56;94239.03;5071377;28;20036;-78
2023/08/02 09:55:20;;;;;;;6.72;5.07;;;;;;;31.32;31.28;94231.50;5071131;28;20413;-78
2023/08/02 09:57:46;;;;;;;9.02;5.25;;;;;;;31.05;30.74;94235.28;5054401;28;20116;-79
2023/08/02 10:00:12;;;;;;;7.20;4.95;;;;;;;31.09;31.18;94217.59;5071070;28;20092;-79
2023/08/02 10:02:37;;;;;;;6.20;5.22;;;;;;;31.08;30.63;94220.53;5054574;28;20506;-79
2023/08/02 10:05:03;;;;;;;5.75;5.15;;;;;;;30.64;30.99;94208.41;5072318;28;20032;-77
2023/08/02 10:07:42;;;;;;;7.10;5.35;;;;;;;30.48;30.40;94209.50;5037204;28;20029;-78
2023/08/02 10:10:29;;;;;;;5.32;4.80;;;;;;;30.52;31.18;94209.75;5038411;28;20032;-78
2023/08/02 10:13:05;;;;;;;7.85;5.30;;;;;;;30.71;31.54;94219.69;5054873;28;20041;-78
2023/08/02 10:15:31;;;;;;;8.00;5.72;;;;;;;30.49;32.14;94224.50;5038159;28;20063;-79
2023/08/02 10:17:56;;;;;;;6.57;5.90;;;;;;;30.52;32.59;94223.16;5054236;28;20434;-79
2023/08/02 10:20:22;;;;;;;8.20;5.80;;;;;;;30.44;32.24;94224.47;5053584;28;20033;-78
2023/08/02 10:22:47;;;;;;;7.63;5.80;;;;;;;30.52;32.32;94223.16;5037223;28;20028;-79
2023/08/02 10:25:13;;;;;;;5.93;5.32;;;;;;;30.27;31.93;94225.50;5054291;28;20028;-79
2023/08/02 10:27:39;;;;;;;12.35;5.45;;;;;;;30.29;32.08;94206.50;5070716;28;20033;-78
2023/08/02 10:30:05;;;;;;;5.85;5.25;;;;;;;30.29;31.83;94201.16;5072156;28;20486;-79
2023/08/02 10:32:30;;;;;;;7.57;5.50;;;;;;;30.06;31.53;94202.38;5070281;28;20519;-78
2023/08/02 10:34:56;;;;;;;7.38;5.25;;;;;;;30.05;32.63;94212.28;5071756;28;20028;-79
2023/08/02 10:37:22;;;;;;;6.10;5.50;;;;;;;29.91;31.48;94210.38;5070602;28;20036;-79
2023/08/02 10:39:47;;;;;;;7.38;4.57;;;;;;;30.02;32.19;94212.81;5070294;28;20025;-81
2023/08/02 10:42:14;;;;;;;7.20;4.90;;;;;;;30.18;31.66;94205.66;5070060;28;20032;-79
2023/08/02 10:44:55;;;;;;;8.02;4.63;;;;;;;30.41;31.37;94198.22;5053352;28;20278;-79
2023/08/02 10:47:30;;;;;;;5.38;4.60;;;;;;;30.26;30.75;94188.28;5071670;28;20558;-79
2023/08/02 10:49:56;;;;;;;5.63;4.80;;;;;;;30.23;31.04;94192.31;5054347;28;20035;-79
2023/08/02 10:52:38;;;;;;;6.68;4.60;;;;;;;30.28;30.98;94196.84;5053862;28;20028;-79
2023/08/02 10:55:17;;;;;;;6.10;4.47;;;;;;;30.47;30.24;94203.31;5070301;28;20074;-79
2023/08/02 10:57:55;;;;;;;6.78;4.57;;;;;;;30.65;30.05;94204.69;5053364;28;20036;-79
2023/08/02 11:00:23;;;;;;;5.40;4.40;;;;;;;30.63;30.17;94200.66;5071373;28;20470;-79
2023/08/02 11:02:49;;;;;;;6.00;4.25;;;;;;;30.53;30.40;94204.13;5053766;28;20150;-79
2023/08/02 11:05:38;;;;;;;6.78;4.60;;;;;;;30.44;30.48;94195.81;5053450;28;20131;-79
2023/08/02 11:08:03;;;;;;;5.65;4.10;;;;;;;30.58;30.57;94201.44;5063266;28;20041;-79
2023/08/02 11:10:29;;;;;;;4.80;4.30;;;;;;;30.83;29.19;94200.69;5036569;28;20027;-79
2023/08/02 11:12:54;;;;;;;8.80;4.68;;;;;;;30.87;29.85;94204.47;5069605;28;20036;-79
2023/08/02 11:15:20;;;;;;;4.97;4.40;;;;;;;30.65;29.60;94161.00;5053116;28;20029;-79
2023/08/02 11:17:56;;;;;;;6.05;4.03;;;;;;;30.64;29.83;94189.66;5036403;28;20468;-79
2023/08/02 11:20:28;;;;;;;8.45;4.45;;;;;;;30.74;30.46;94196.91;5053392;28;20115;-79
2023/08/02 11:22:54;;;;;;;6.80;4.28;;;;;;;30.75;30.38;94190.47;5053308;28;20106;-79
2023/08/02 11:25:20;;;;;;;8.18;4.40;;;;;;;30.72;29.90;94199.84;5069737;28;20021;-79
2023/08/02 11:27:45;;;;;;;9.25;4.30;;;;;;;30.63;30.05;94203.34;5069853;28;20510;-79